createdAt,value
2019-04-20T00:01:52.588Z,102657.30
2019-04-20T00:04:25.721Z,102661.12
2019-04-20T00:06:52.832Z,102655.48
2019-04-20T00:09:24.059Z,102656.67
2019-04-20T00:11:59.212Z,102661.17
2019-04-20T00:14:19.697Z,102661.25
2019-04-20T00:16:44.373Z,102656.28
2019-04-20T00:19:17.264Z,102656.22
2019-04-20T00:21:57.471Z,102657.08
2019-04-20T00:24:29.233Z,102652.23
2019-04-20T00:29:43.149Z,102652.50
2019-04-20T00:32:02.603Z,102649.62
2019-04-20T00:34:26.748Z,102644.47
2019-04-20T00:36:47.609Z,102642.59
2019-04-20T00:39:16.532Z,102642.08
2019-04-20T00:41:50.571Z,102647.59
2019-04-20T00:44:22.016Z,102639.39
2019-04-20T00:46:58.490Z,102641.75
2019-04-20T00:49:27.291Z,102638.25
2019-04-20T00:52:05.175Z,102641.61
2019-04-20T00:54:07.737Z,102636.19
2019-04-20T00:56:35.171Z,102630.25
2019-04-20T00:59:12.987Z,102632.02
2019-04-20T01:01:51.930Z,102628.96
2019-04-20T01:04:19.878Z,102631.89
2019-04-20T01:07:06.265Z,102630.97
2019-04-20T01:09:26.506Z,102634.30
2019-04-20T01:11:54.491Z,102626.80
2019-04-20T01:14:30.522Z,102627.22
2019-04-20T01:16:58.183Z,102635.04
2019-04-20T01:19:20.360Z,102625.55
2019-04-20T01:21:53.406Z,102627.73
2019-04-20T01:24:26.297Z,102620.64
2019-04-20T01:26:50.531Z,102627.97
2019-04-20T01:29:21.498Z,102622.23
2019-04-20T01:31:55.703Z,102624.13
2019-04-20T01:34:26.965Z,102629.81
2019-04-20T01:36:57.577Z,102630.61
2019-04-20T01:39:19.762Z,102624.77
2019-04-20T01:41:37.149Z,102626.63
2019-04-20T01:44:05.062Z,102626.11
2019-04-20T01:46:33.363Z,102618.98
2019-04-20T01:49:10.534Z,102626.98
2019-04-20T01:51:37.350Z,102620.22
2019-04-20T01:54:31.185Z,102618.14
2019-04-20T01:57:13.946Z,102624.44
2019-04-20T01:59:48.191Z,102619.52
2019-04-20T02:02:35.459Z,102629.06
2019-04-20T02:05:14.734Z,102629.71
2019-04-20T02:07:42.095Z,102637.98
2019-04-20T02:10:08.842Z,102634.89
2019-04-20T02:12:37.639Z,102638.20
2019-04-20T02:15:08.133Z,102644.05
2019-04-20T02:17:40.801Z,102642.06
2019-04-20T02:20:23.026Z,102641.19
2019-04-20T02:22:46.483Z,102642.22
2019-04-20T02:25:01.626Z,102635.27
2019-04-20T02:27:36.904Z,102642.22
2019-04-20T02:30:29.870Z,102640.86
2019-04-20T02:33:09.183Z,102637.52
2019-04-20T02:36:10.387Z,102637.63
2019-04-20T02:39:13.676Z,102642.22
2019-04-20T02:41:36.086Z,102637.59
2019-04-20T02:44:01.297Z,102646.47
2019-04-20T02:46:06.121Z,102641.92
2019-04-20T02:48:41.559Z,102646.25
2019-04-20T02:51:05.916Z,102644.92
2019-04-20T02:53:43.325Z,102639.92
2019-04-20T02:56:32.380Z,102647.97
2019-04-20T02:58:42.239Z,102644.25
2019-04-20T03:00:58.343Z,102647.69
2019-04-20T03:03:15.834Z,102637.77
2019-04-20T03:05:41.434Z,102644.80
2019-04-20T03:08:17.673Z,102648.55
2019-04-20T03:10:56.694Z,102646.59
2019-04-20T03:13:18.639Z,102638.80
2019-04-20T03:15:44.528Z,102640.41
2019-04-20T03:18:13.558Z,102640.11
2019-04-20T03:20:47.808Z,102641.35
2019-04-20T03:23:24.838Z,102640.81
2019-04-20T03:25:55.302Z,102636.70
2019-04-20T03:28:18.282Z,102640.84
2019-04-20T03:33:44.686Z,102637.88
2019-04-20T03:36:08.653Z,102635.56
2019-04-20T03:38:24.581Z,102640.77
2019-04-20T03:40:41.331Z,102646.01
2019-04-20T03:42:59.136Z,102644.12
2019-04-20T03:45:28.138Z,102641.47
2019-04-20T03:48:07.381Z,102636.69
2019-04-20T03:50:46.357Z,102638.31
2019-04-20T03:53:20.200Z,102633.00
2019-04-20T03:56:19.703Z,102636.89
2019-04-20T03:59:07.729Z,102634.38
2019-04-20T04:02:03.374Z,102639.59
2019-04-20T04:04:27.737Z,102637.02
2019-04-20T04:06:44.398Z,102632.54
2019-04-20T04:09:16.419Z,102633.74
2019-04-20T04:11:48.971Z,102634.11
2019-04-20T04:14:02.997Z,102641.80
2019-04-20T04:16:39.406Z,102641.84
2019-04-20T04:19:08.953Z,102642.73
2019-04-20T04:21:44.794Z,102641.66
2019-04-20T04:24:09.442Z,102637.38
2019-04-20T04:26:39.465Z,102638.82
2019-04-20T04:29:21.313Z,102644.54
2019-04-20T04:31:52.053Z,102636.73
2019-04-20T04:34:10.774Z,102640.27
2019-04-20T04:36:36.036Z,102643.08
2019-04-20T04:39:08.871Z,102639.69
2019-04-20T04:41:36.352Z,102640.93
2019-04-20T04:44:04.487Z,102641.19
2019-04-20T04:46:14.463Z,102634.27
2019-04-20T04:48:45.704Z,102645.58
2019-04-20T04:51:20.279Z,102643.47
2019-04-20T04:53:50.548Z,102648.44
2019-04-20T04:56:13.178Z,102642.69
2019-04-20T04:58:38.370Z,102646.42
2019-04-20T05:01:11.837Z,102645.51
2019-04-20T05:03:53.811Z,102648.14
2019-04-20T05:06:31.525Z,102647.75
2019-04-20T05:08:53.200Z,102647.21
2019-04-20T05:11:17.320Z,102653.05
2019-04-20T05:13:52.335Z,102654.30
2019-04-20T05:16:33.746Z,102651.66
2019-04-20T05:19:05.109Z,102656.59
2019-04-20T05:21:49.601Z,102653.70
2019-04-20T05:24:25.482Z,102656.67
2019-04-20T05:27:19.292Z,102664.25
2019-04-20T05:29:29.918Z,102655.91
2019-04-20T05:32:02.699Z,102662.95
2019-04-20T05:34:45.394Z,102659.75
2019-04-20T05:37:23.665Z,102662.55
2019-04-20T05:39:38.463Z,102660.32
2019-04-20T05:42:12.671Z,102657.94
2019-04-20T05:44:42.753Z,102655.92
2019-04-20T05:47:11.317Z,102662.83
2019-04-20T05:49:38.509Z,102666.17
2019-04-20T05:52:22.537Z,102665.59
2019-04-20T05:54:39.180Z,102664.96
2019-04-20T05:57:14.457Z,102663.96
2019-04-20T05:59:34.986Z,102665.31
2019-04-20T06:02:03.800Z,102671.30
2019-04-20T06:04:46.951Z,102668.72
2019-04-20T06:07:02.421Z,102673.77
2019-04-20T06:09:47.898Z,102665.29
2019-04-20T06:12:07.603Z,102665.66
2019-04-20T06:14:25.841Z,102670.19
2019-04-20T06:17:11.187Z,102670.28
2019-04-20T06:19:35.886Z,102673.45
2019-04-20T06:22:19.097Z,102670.63
2019-04-20T06:25:03.501Z,102671.48
2019-04-20T06:27:36.197Z,102671.70
2019-04-20T06:29:55.908Z,102675.29
2019-04-20T06:33:11.224Z,102678.88
2019-04-20T06:35:54.857Z,102683.14
2019-04-20T06:38:10.344Z,102679.92
2019-04-20T06:40:46.776Z,102679.34
2019-04-20T06:43:07.453Z,102676.52
2019-04-20T06:45:36.490Z,102679.28
2019-04-20T06:48:05.851Z,102680.72
2019-04-20T06:50:29.180Z,102674.31
2019-04-20T06:53:16.281Z,102681.26
2019-04-20T06:55:48.423Z,102683.42
2019-04-20T06:58:31.890Z,102683.22
2019-04-20T07:00:42.231Z,102685.73
2019-04-20T07:03:18.089Z,102684.80
2019-04-20T07:05:39.098Z,102686.55
2019-04-20T07:08:27.660Z,102682.87
2019-04-20T07:10:44.567Z,102682.87
2019-04-20T07:13:04.751Z,102689.36
2019-04-20T07:15:42.288Z,102686.39
2019-04-20T07:18:17.183Z,102685.55
2019-04-20T07:21:23.487Z,102688.98
2019-04-20T07:23:57.492Z,102688.98
2019-04-20T07:26:22.357Z,102689.12
2019-04-20T07:28:52.826Z,102694.72
2019-04-20T07:31:15.882Z,102694.72
2019-04-20T07:33:47.997Z,102694.55
2019-04-20T07:36:22.644Z,102693.67
2019-04-20T07:38:47.653Z,102690.70
2019-04-20T07:41:20.509Z,102701.99
2019-04-20T07:43:52.981Z,102698.58
2019-04-20T07:46:20.884Z,102688.47
2019-04-20T07:48:36.567Z,102692.54
2019-04-20T07:51:01.136Z,102695.11
2019-04-20T07:53:34.396Z,102694.25
2019-04-20T07:56:13.069Z,102696.08
2019-04-20T07:58:28.347Z,102694.09
2019-04-20T08:01:23.796Z,102694.95
2019-04-20T08:03:55.803Z,102694.95
2019-04-20T08:06:19.334Z,102694.27
2019-04-20T08:08:56.090Z,102693.80
2019-04-20T08:11:21.596Z,102696.86
2019-04-20T08:14:03.403Z,102685.50
2019-04-20T08:16:40.845Z,102688.70
2019-04-20T08:18:53.937Z,102689.08
2019-04-20T08:21:28.411Z,102692.23
2019-04-20T08:23:55.519Z,102694.14
2019-04-20T08:26:10.979Z,102689.11
2019-04-20T08:28:50.358Z,102695.16
2019-04-20T08:32:03.224Z,102691.35
2019-04-20T08:34:31.215Z,102696.62
2019-04-20T08:36:56.637Z,102696.86
2019-04-20T08:39:37.422Z,102687.23
2019-04-20T08:42:00.707Z,102686.31
2019-04-20T08:47:05.170Z,102686.45
2019-04-20T08:49:29.680Z,102684.39
2019-04-20T08:52:09.189Z,102685.11
2019-04-20T08:54:17.070Z,102678.61
2019-04-20T08:56:39.311Z,102682.69
2019-04-20T08:58:59.634Z,102681.08
2019-04-20T09:01:30.870Z,102689.73
2019-04-20T09:04:05.417Z,102687.91
2019-04-20T09:06:41.980Z,102686.30
2019-04-20T09:09:11.786Z,102680.34
2019-04-20T09:11:41.547Z,102670.86
2019-04-20T09:13:55.918Z,102675.56
2019-04-20T09:16:28.613Z,102675.03
2019-04-20T09:18:56.923Z,102680.78
2019-04-20T09:21:28.742Z,102679.61
2019-04-20T09:24:04.532Z,102685.75
2019-04-20T09:26:32.782Z,102685.75
2019-04-20T09:28:59.127Z,102678.89
2019-04-20T09:31:35.882Z,102672.41
2019-04-20T09:34:33.669Z,102665.16
2019-04-20T09:37:22.434Z,102669.71
2019-04-20T09:39:44.913Z,102663.22
2019-04-20T09:42:14.109Z,102664.54
2019-04-20T09:44:47.417Z,102666.05
2019-04-20T09:47:10.540Z,102665.78
2019-04-20T09:49:51.907Z,102668.64
2019-04-20T09:52:21.269Z,102667.33
2019-04-20T09:54:55.155Z,102662.52
2019-04-20T09:57:26.758Z,102659.11
2019-04-20T09:59:53.717Z,102656.13
2019-04-20T10:02:10.238Z,102658.50
2019-04-20T10:04:31.404Z,102652.81
2019-04-20T10:07:00.028Z,102651.66
2019-04-20T10:09:32.695Z,102650.13
2019-04-20T10:11:55.873Z,102647.36
2019-04-20T10:14:22.706Z,102645.24
2019-04-20T10:16:49.798Z,102647.09
2019-04-20T10:19:20.591Z,102646.56
2019-04-20T10:21:45.742Z,102645.26
2019-04-20T10:24:12.657Z,102644.80
2019-04-20T10:26:40.768Z,102643.45
2019-04-20T10:29:07.989Z,102650.79
2019-04-20T10:31:42.675Z,102647.17
2019-04-20T10:34:03.917Z,102643.33
2019-04-20T10:36:37.621Z,102649.40
2019-04-20T10:39:06.678Z,102641.48
2019-04-20T10:41:44.605Z,102638.48
2019-04-20T10:44:02.861Z,102638.70
2019-04-20T10:46:31.106Z,102631.88
2019-04-20T10:49:02.624Z,102633.36
2019-04-20T10:51:26.806Z,102632.17
2019-04-20T10:53:54.201Z,102629.70
2019-04-20T10:56:21.322Z,102626.58
2019-04-20T10:58:49.629Z,102626.16
2019-04-20T11:01:17.839Z,102621.84
2019-04-20T11:03:45.033Z,102625.94
2019-04-20T11:06:11.922Z,102625.34
2019-04-20T11:08:38.636Z,102619.19
2019-04-20T11:11:12.944Z,102619.27
2019-04-20T11:13:35.267Z,102610.93
2019-04-20T11:16:02.408Z,102610.11
2019-04-20T11:18:29.364Z,102605.87
2019-04-20T11:20:57.461Z,102608.45
2019-04-20T11:23:24.546Z,102604.80
2019-04-20T11:25:52.486Z,102606.88
2019-04-20T11:28:19.920Z,102601.32
2019-04-20T11:30:47.814Z,102597.81
2019-04-20T11:33:16.012Z,102608.05
2019-04-20T11:35:45.190Z,102615.24
2019-04-20T11:38:14.273Z,102603.41
2019-04-20T11:40:42.094Z,102601.17
2019-04-20T11:43:11.483Z,102601.22
2019-04-20T11:45:38.566Z,102597.48
2019-04-20T11:48:05.504Z,102596.61
2019-04-20T11:50:33.624Z,102599.69
2019-04-20T11:53:01.534Z,102588.28
2019-04-20T11:55:28.626Z,102585.51
2019-04-20T11:57:56.210Z,102583.65
2019-04-20T12:00:43.199Z,102575.69
2019-04-20T12:03:24.821Z,102578.97
2019-04-20T12:05:51.632Z,102576.66
2019-04-20T12:08:16.636Z,102575.20
2019-04-20T12:10:50.923Z,102567.10
2019-04-20T12:13:14.732Z,102573.63
2019-04-20T12:15:41.606Z,102566.71
2019-04-20T12:18:09.570Z,102567.04
2019-04-20T12:20:36.704Z,102569.25
2019-04-20T12:23:04.329Z,102567.65
2019-04-20T12:25:34.166Z,102564.14
2019-04-20T12:28:02.270Z,102562.19
2019-04-20T12:30:30.063Z,102565.66
2019-04-20T12:33:01.497Z,102563.96
2019-04-20T12:35:26.491Z,102551.83
2019-04-20T12:37:54.607Z,102549.34
2019-04-20T12:40:21.913Z,102546.39
2019-04-20T12:42:49.280Z,102541.53
2019-04-20T12:45:17.674Z,102545.02
2019-04-20T12:47:46.965Z,102550.19
2019-04-20T12:50:14.096Z,102547.97
2019-04-20T12:52:41.105Z,102545.28
2019-04-20T12:55:08.516Z,102544.45
2019-04-20T12:57:36.496Z,102541.11
2019-04-20T13:00:05.634Z,102541.23
2019-04-20T13:02:33.478Z,102537.70
2019-04-20T13:05:01.586Z,102536.02
2019-04-20T13:07:38.240Z,102541.95
2019-04-20T13:10:02.207Z,102530.91
2019-04-20T13:12:47.253Z,102527.89
2019-04-20T13:15:42.446Z,102532.59
2019-04-20T13:18:09.995Z,102522.83
2019-04-20T13:20:36.773Z,102522.05
2019-04-20T13:23:05.544Z,102520.25
2019-04-20T13:25:32.885Z,102521.87
2019-04-20T13:28:00.941Z,102520.06
2019-04-20T13:30:28.074Z,102518.11
2019-04-20T13:32:57.065Z,102520.66
2019-04-20T13:35:23.421Z,102515.20
2019-04-20T13:37:50.315Z,102510.14
2019-04-20T13:40:17.692Z,102513.81
2019-04-20T13:42:45.624Z,102510.64
2019-04-20T13:45:13.041Z,102506.67
2019-04-20T13:47:40.865Z,102501.88
2019-04-20T13:50:09.724Z,102498.56
2019-04-20T13:52:36.881Z,102488.53
2019-04-20T13:55:04.228Z,102495.55
2019-04-20T13:57:38.126Z,102484.63
2019-04-20T14:00:25.972Z,102480.92
2019-04-20T14:03:00.552Z,102478.71
2019-04-20T14:05:31.341Z,102487.94
2019-04-20T14:08:00.803Z,102477.55
2019-04-20T14:10:27.586Z,102479.03
2019-04-20T14:13:01.614Z,102481.22
2019-04-20T14:15:23.017Z,102476.22
2019-04-20T14:17:51.033Z,102476.20
2019-04-20T14:20:20.305Z,102469.88
2019-04-20T14:22:47.287Z,102470.16
2019-04-20T14:25:15.336Z,102468.70
2019-04-20T14:27:42.649Z,102463.08
2019-04-20T14:30:10.973Z,102459.35
2019-04-20T14:32:38.879Z,102463.94
2019-04-20T14:35:07.132Z,102457.95
2019-04-20T14:37:34.984Z,102454.44
2019-04-20T14:40:04.231Z,102457.25
2019-04-20T14:42:39.453Z,102448.38
2019-04-20T14:44:59.772Z,102449.19
2019-04-20T14:47:27.825Z,102447.33
2019-04-20T14:49:56.629Z,102453.86
2019-04-20T14:52:23.912Z,102444.02
2019-04-20T14:54:50.730Z,102441.70
2019-04-20T14:57:17.416Z,102451.30
2019-04-20T14:59:49.570Z,102450.84
2019-04-20T15:02:19.458Z,102443.36
2019-04-20T15:04:47.365Z,102437.38
2019-04-20T15:07:14.977Z,102435.18
2019-04-20T15:09:42.786Z,102428.48
2019-04-20T15:12:10.927Z,102428.09
2019-04-20T15:14:38.688Z,102426.97
2019-04-20T15:17:06.807Z,102426.77
2019-04-20T15:19:59.471Z,102423.67
2019-04-20T15:22:31.663Z,102427.06
2019-04-20T15:24:59.840Z,102426.44
2019-04-20T15:27:28.063Z,102413.43
2019-04-20T15:29:56.129Z,102416.83
2019-04-20T15:32:25.020Z,102408.81
2019-04-20T15:34:53.093Z,102407.08
2019-04-20T15:37:20.299Z,102411.94
2019-04-20T15:39:47.436Z,102404.18
2019-04-20T15:42:15.475Z,102403.26
2019-04-20T15:44:43.013Z,102400.77
2019-04-20T15:47:11.172Z,102401.47
2019-04-20T15:49:38.169Z,102400.12
2019-04-20T15:52:05.890Z,102395.85
2019-04-20T15:54:33.865Z,102393.71
2019-04-20T15:57:04.595Z,102392.13
2019-04-20T15:59:30.661Z,102394.52
2019-04-20T16:02:03.161Z,102390.95
2019-04-20T16:04:52.622Z,102391.02
2019-04-20T16:07:19.670Z,102391.39
2019-04-20T16:09:46.547Z,102384.41
2019-04-20T16:12:13.331Z,102379.92
2019-04-20T16:14:41.754Z,102377.95
2019-04-20T16:17:12.289Z,102378.42
2019-04-20T16:19:49.144Z,102367.12
2019-04-20T16:22:07.900Z,102363.98
2019-04-20T16:24:38.397Z,102363.59
2019-04-20T16:27:13.819Z,102370.04
2019-04-20T16:29:41.882Z,102368.73
2019-04-20T16:32:08.976Z,102373.95
2019-04-20T16:34:37.135Z,102364.94
2019-04-20T16:37:04.761Z,102361.45
2019-04-20T16:39:32.284Z,102354.83
2019-04-20T16:42:00.409Z,102354.52
2019-04-20T16:44:27.463Z,102357.78
2019-04-20T16:46:54.362Z,102353.97
2019-04-20T16:49:21.342Z,102346.61
2019-04-20T16:51:49.314Z,102342.08
2019-04-20T16:54:17.485Z,102341.16
2019-04-20T16:56:44.621Z,102341.63
2019-04-20T16:59:13.233Z,102344.24
2019-04-20T17:01:40.622Z,102337.16
2019-04-20T17:04:12.803Z,102329.77
2019-04-20T17:06:38.084Z,102334.84
2019-04-20T17:09:05.622Z,102330.27
2019-04-20T17:11:34.160Z,102334.91
2019-04-20T17:14:03.108Z,102330.84
2019-04-20T17:16:29.725Z,102336.41
2019-04-20T17:18:57.365Z,102333.92
2019-04-20T17:21:27.697Z,102326.59
2019-04-20T17:23:53.307Z,102330.46
2019-04-20T17:26:32.951Z,102324.04
2019-04-20T17:29:13.833Z,102324.24
2019-04-20T17:32:07.880Z,102318.98
2019-04-20T17:34:46.980Z,102320.34
2019-04-20T17:37:04.540Z,102316.81
2019-04-20T17:39:41.887Z,102322.07
2019-04-20T17:42:16.571Z,102324.40
2019-04-20T17:44:44.810Z,102316.23
2019-04-20T17:47:10.959Z,102321.19
2019-04-20T17:49:41.341Z,102324.69
2019-04-20T17:52:17.625Z,102325.86
2019-04-20T17:54:45.786Z,102323.02
2019-04-20T17:57:13.139Z,102323.77
2019-04-20T17:59:47.104Z,102324.78
2019-04-20T18:03:03.365Z,102321.02
2019-04-20T18:05:39.301Z,102322.38
2019-04-20T18:08:10.351Z,102321.87
2019-04-20T18:10:30.310Z,102317.11
2019-04-20T18:12:50.393Z,102315.30
2019-04-20T18:15:31.290Z,102324.81
2019-04-20T18:18:24.129Z,102322.00
2019-04-20T18:20:52.994Z,102323.52
2019-04-20T18:23:25.538Z,102325.02
2019-04-20T18:26:17.166Z,102323.97
2019-04-20T18:28:32.643Z,102310.66
2019-04-20T18:31:09.113Z,102317.42
2019-04-20T18:33:38.779Z,102317.05
2019-04-20T18:36:05.925Z,102319.77
2019-04-20T18:38:39.186Z,102320.84
2019-04-20T18:41:07.001Z,102316.09
2019-04-20T18:43:31.384Z,102326.13
2019-04-20T18:46:20.392Z,102322.11
2019-04-20T18:48:52.303Z,102319.75
2019-04-20T18:50:57.440Z,102325.06
2019-04-20T18:53:33.637Z,102328.14
2019-04-20T18:55:56.008Z,102325.94
2019-04-20T18:58:22.851Z,102327.06
2019-04-20T19:00:51.911Z,102328.31
2019-04-20T19:03:26.950Z,102324.14
2019-04-20T19:05:47.651Z,102330.86
2019-04-20T19:08:15.760Z,102325.14
2019-04-20T19:10:43.691Z,102327.42
2019-04-20T19:13:29.677Z,102324.54
2019-04-20T19:16:15.273Z,102324.02
2019-04-20T19:19:04.241Z,102328.47
2019-04-20T19:21:19.224Z,102332.70
2019-04-20T19:23:56.215Z,102327.12
2019-04-20T19:26:20.870Z,102323.67
2019-04-20T19:28:50.547Z,102325.43
2019-04-20T19:31:28.717Z,102316.69
2019-04-20T19:34:01.395Z,102318.02
2019-04-20T19:36:19.824Z,102318.53
2019-04-20T19:38:52.378Z,102316.80
2019-04-20T19:41:25.408Z,102324.89
2019-04-20T19:43:48.335Z,102321.63
2019-04-20T19:46:39.665Z,102323.77
2019-04-20T19:48:48.314Z,102317.59
2019-04-20T19:51:24.061Z,102308.05
2019-04-20T19:53:58.710Z,102302.25
2019-04-20T19:56:10.641Z,102304.51
2019-04-20T19:58:39.784Z,102300.98
2019-04-20T20:00:59.888Z,102299.96
2019-04-20T20:03:27.934Z,102301.36
2019-04-20T20:05:56.497Z,102297.66
2019-04-20T20:08:25.927Z,102300.69
2019-04-20T20:10:52.609Z,102293.64
2019-04-20T20:13:20.464Z,102290.61
2019-04-20T20:15:47.401Z,102288.59
2019-04-20T20:18:30.663Z,102285.69
2019-04-20T20:21:00.600Z,102285.06
2019-04-20T20:23:12.053Z,102282.28
2019-04-20T20:25:43.085Z,102282.48
2019-04-20T20:28:18.860Z,102287.48
2019-04-20T20:30:50.845Z,102282.95
2019-04-20T20:33:24.221Z,102286.84
2019-04-20T20:35:45.805Z,102284.66
2019-04-20T20:38:16.762Z,102279.86
2019-04-20T20:40:39.668Z,102287.89
2019-04-20T20:43:14.766Z,102281.34
2019-04-20T20:45:38.671Z,102280.31
2019-04-20T20:48:18.474Z,102280.31
2019-04-20T20:50:50.256Z,102290.56
2019-04-20T20:53:10.288Z,102290.25
2019-04-20T20:55:34.181Z,102290.25
2019-04-20T20:58:05.259Z,102285.53
2019-04-20T21:00:37.257Z,102285.53
2019-04-20T21:03:00.757Z,102281.86
2019-04-20T21:05:23.876Z,102277.67
2019-04-20T21:07:51.344Z,102274.06
2019-04-20T21:10:25.942Z,102272.86
2019-04-20T21:12:54.098Z,102256.27
2019-04-20T21:15:20.787Z,102261.46
2019-04-20T21:18:12.206Z,102261.46
2019-04-20T21:20:33.240Z,102257.92
2019-04-20T21:23:01.330Z,102258.67
2019-04-20T21:25:17.060Z,102258.67
2019-04-20T21:27:44.990Z,102254.26
2019-04-20T21:30:18.419Z,102254.26
2019-04-20T21:32:45.675Z,102253.30
2019-04-20T21:35:12.816Z,102238.22
2019-04-20T21:37:41.342Z,102238.22
2019-04-20T21:40:16.661Z,102236.91
2019-04-20T21:42:45.580Z,102235.38
2019-04-20T21:45:10.721Z,102247.97
2019-04-20T21:47:36.512Z,102238.62
2019-04-20T21:50:20.650Z,102233.95
2019-04-20T21:52:38.832Z,102233.95
2019-04-20T21:55:00.343Z,102232.30
2019-04-20T21:57:32.514Z,102233.91
2019-04-20T22:00:02.582Z,102233.64
2019-04-20T22:02:32.215Z,102233.94
2019-04-20T22:04:53.505Z,102238.84
2019-04-20T22:07:20.712Z,102238.84
2019-04-20T22:09:52.785Z,102237.66
2019-04-20T22:12:16.424Z,102235.47
2019-04-20T22:14:43.907Z,102227.33
2019-04-20T22:17:14.259Z,102213.35
2019-04-20T22:19:45.888Z,102232.94
2019-04-20T22:22:18.448Z,102232.94
2019-04-20T22:24:50.564Z,102230.23
2019-04-20T22:27:14.494Z,102230.23
2019-04-20T22:29:34.423Z,102227.94
2019-04-20T22:32:07.179Z,102224.31
2019-04-20T22:34:31.931Z,102211.00
2019-04-20T22:36:59.925Z,102219.59
2019-04-20T22:39:39.414Z,102218.44
2019-04-20T22:42:05.614Z,102217.58
2019-04-20T22:44:31.052Z,102217.58
2019-04-20T22:46:58.483Z,102214.37
2019-04-20T22:49:43.052Z,102215.49
2019-04-20T22:52:03.034Z,102213.41
2019-04-20T22:54:39.787Z,102211.27
2019-04-20T22:57:03.609Z,102208.77
2019-04-20T22:59:25.078Z,102203.43
2019-04-20T23:01:55.225Z,102209.70
2019-04-20T23:04:19.047Z,102206.64
2019-04-20T23:06:49.754Z,102206.40
2019-04-20T23:09:15.013Z,102210.02
2019-04-20T23:11:43.328Z,102202.80
2019-04-20T23:14:10.824Z,102199.13
2019-04-20T23:16:43.205Z,102197.23
2019-04-20T23:19:07.901Z,102191.19
2019-04-20T23:21:34.838Z,102190.44
2019-04-20T23:24:06.378Z,102185.38
2019-04-20T23:26:36.888Z,102186.04
2019-04-20T23:29:02.474Z,102178.89
2019-04-20T23:31:30.342Z,102176.24
2019-04-20T23:34:01.392Z,102170.29
2019-04-20T23:36:34.828Z,102169.41
2019-04-20T23:38:59.204Z,102169.78
2019-04-20T23:41:23.837Z,102166.04
2019-04-20T23:44:29.335Z,102163.61
2019-04-20T23:47:21.571Z,102158.03
2019-04-20T23:50:05.979Z,102165.84
2019-04-20T23:52:43.203Z,102157.30
2019-04-20T23:54:58.147Z,102161.52
2019-04-20T23:57:17.766Z,102154.30
2019-04-20T23:59:46.587Z,102156.71
